CheckWX is a tool to help pilots better visualize weather data.  It is not intended as a substitute for an official pre-flight weather briefing.

14:24:13 UTC

GABS METAR
Senou Airport
Senou, Mali
Current

24 mins ago

GABS 201400Z 25005KT 210V300 9999 SCT020 29/22 Q1015 NOSIG
Observed
Jul-20 @ 14:00 UTC
Wind
  • 250° at 5 KTS
Visibility
10,000+ meters
Flight Rules
VFR
Cloud Levels
  • Scattered at 2,000' AGL
Temperature
29°C / 84°F
Dewpoint
22°C / 72°F
Heat Index
32°C / 89°F
Humidity
66%
Altimeter
29.97" Hg
Pressure
1014.92 hPa
Previous

54 mins ago

GABS 201330Z 23006KT 180V320 9999 SCT020 29/23 Q1015 NOSIG
Observed
Jul-20 @ 13:30 UTC
Wind
  • 230° at 6 KTS
Visibility
10,000+ meters
Flight Rules
VFR
Cloud Levels
  • Scattered at 2,000' AGL
Temperature
29°C / 84°F
Dewpoint
23°C / 73°F
Heat Index
32°C / 90°F
Humidity
70%
Altimeter
29.97" Hg
Pressure
1014.92 hPa
Previous

1 hour ago

GABS 201300Z 21007KT 170V240 9999 SCT020 28/22 Q1016 NOSIG
Observed
Jul-20 @ 13:00 UTC
Wind
  • 210° at 7 KTS
Visibility
10,000+ meters
Flight Rules
VFR
Cloud Levels
  • Scattered at 2,000' AGL
Temperature
28°C / 82°F
Dewpoint
22°C / 72°F
Heat Index
30°C / 86°F
Humidity
70%
Altimeter
30" Hg
Pressure
1015.92 hPa